Time;durP1;ratioP1;P1;durP2;ratioP2;P2;SDS_P1;SDS_P2;PMS_P1;PMS_P2;Temp;Humidity;BMP_temperature;BMP_pressure;BME280_temperature;BME280_humidity;BME280_pressure;Samples;Min_cycle;Max_cycle;Signal;HPM_P1;HPM_P2
2023/04/03 00:01:43;;;;;;;;;;;;;;;-2.64;100.00;102453.84;5052811;28;19916;-66
2023/04/03 00:04:08;;;;;;;;;;;;;;;-2.64;100.00;102459.06;5052707;28;19924;-64
2023/04/03 00:06:34;;;;;;;;;;;;;;;-2.67;100.00;102456.53;5052700;28;19913;-67
2023/04/03 00:09:00;;;;;;;;;;;;;;;-2.69;100.00;102447.91;5052728;28;19921;-65
2023/04/03 00:11:26;;;;;;;;;;;;;;;-2.67;100.00;102456.53;5052387;28;20385;-65
2023/04/03 00:13:51;;;;;;;;;;;;;;;-2.64;100.00;102440.81;5052530;28;20359;-65
2023/04/03 00:16:16;;;;;;;;;;;;;;;-2.61;100.00;102453.78;5052667;28;20011;-66
2023/04/03 00:18:42;;;;;;;;;;;;;;;-2.59;100.00;102445.06;5052386;28;19913;-63
2023/04/03 00:21:08;;;;;;;;;;;;;;;-2.62;100.00;102455.53;5052290;28;19913;-66
2023/04/03 00:23:34;;;;;;;;;;;;;;;-2.61;100.00;102451.16;5052084;28;20283;-66
2023/04/03 00:26:00;;;;;;;;;;;;;;;-2.60;100.00;102439.88;5052456;28;19913;-64
2023/04/03 00:28:26;;;;;;;;;;;;;;;-2.58;100.00;102440.69;5052165;28;20276;-65
2023/04/03 00:30:52;;;;;;;;;;;;;;;-2.57;100.00;102438.03;5052220;28;19916;-65
2023/04/03 00:33:17;;;;;;;;;;;;;;;-2.54;100.00;102444.94;5050927;28;20357;-65
2023/04/03 00:35:43;;;;;;;;;;;;;;;-2.54;100.00;102447.53;5052080;28;19917;-65
2023/04/03 00:38:09;;;;;;;;;;;;;;;-2.57;100.00;102445.88;5052217;28;19919;-66
2023/04/03 00:40:38;;;;;;;;;;;;;;;-2.56;100.00;102444.97;5052125;28;19919;-65
2023/04/03 00:43:15;;;;;;;;;;;;;;;-2.64;100.00;102448.63;5052303;28;19920;-70
2023/04/03 00:45:41;;;;;;;;;;;;;;;-2.60;100.00;102452.91;5050913;28;19913;-64
2023/04/03 00:48:09;;;;;;;;;;;;;;;-2.58;100.00;102451.97;5052169;28;19939;-64
2023/04/03 00:50:37;;;;;;;;;;;;;;;-2.59;100.00;102438.97;5050634;28;19912;-65
2023/04/03 00:53:03;;;;;;;;;;;;;;;-2.57;100.00;102447.63;5053720;28;19913;-64
2023/04/03 00:55:29;;;;;;;;;;;;;;;-2.59;100.00;102452.88;5056578;28;19916;-65
2023/04/03 00:57:54;;;;;;;;;;;;;;;-2.62;100.00;102433.81;5056207;28;20067;-67
2023/04/03 01:00:22;;;;;;;;;;;;;;;-2.67;100.00;102446.97;5055977;28;19912;-69
2023/04/03 01:02:47;;;;;;;;;;;;;;;-2.65;100.00;102434.75;5055790;28;19917;-67
2023/04/03 01:05:14;;;;;;;;;;;;;;;-2.63;100.00;102442.53;5056142;28;19973;-65
2023/04/03 01:07:40;;;;;;;;;;;;;;;-2.63;100.00;102439.91;5058179;28;20260;-67
2023/04/03 01:10:07;;;;;;;;;;;;;;;-2.63;100.00;102435.56;5056069;28;20000;-65
2023/04/03 01:12:34;;;;;;;;;;;;;;;-2.62;100.00;102436.41;5056261;28;19920;-66
2023/04/03 01:15:01;;;;;;;;;;;;;;;-2.55;100.00;102435.41;5056795;28;19917;-64
2023/04/03 01:17:32;;;;;;;;;;;;;;;-2.55;100.00;102440.63;5057064;28;20004;-65
2023/04/03 01:20:17;;;;;;;;;;;;;;;-2.63;100.00;102443.38;5056640;28;19912;-66
2023/04/03 01:22:54;;;;;;;;;;;;;;;-2.69;100.00;102432.25;5048789;28;20291;-67
2023/04/03 01:25:19;;;;;;;;;;;;;;;-2.77;100.00;102434.19;5055741;28;19919;-65
2023/04/03 01:27:45;;;;;;;;;;;;;;;-2.80;100.00;102432.53;5055613;28;19912;-65
2023/04/03 01:30:10;;;;;;;;;;;;;;;-2.82;100.00;102421.28;5054614;28;20351;-66
2023/04/03 01:32:36;;;;;;;;;;;;;;;-2.82;100.00;102436.91;5055546;28;19966;-64
2023/04/03 01:35:01;;;;;;;;;;;;;;;-2.82;100.00;102437.78;5055997;28;19952;-64
2023/04/03 01:37:26;;;;;;;;;;;;;;;-2.83;100.00;102428.25;5055886;28;19913;-68
2023/04/03 01:39:52;;;;;;;;;;;;;;;-2.81;100.00;102433.41;5055838;28;20003;-67
2023/04/03 01:42:17;;;;;;;;;;;;;;;-2.77;100.00;102436.81;5054982;28;20019;-65
2023/04/03 01:44:42;;;;;;;;;;;;;;;-2.82;100.00;102429.94;5055314;28;19912;-65
2023/04/03 01:47:08;;;;;;;;;;;;;;;-2.85;100.00;102432.63;5055246;28;20356;-66
2023/04/03 01:49:33;;;;;;;;;;;;;;;-2.82;100.00;102434.31;5054015;28;19920;-66
2023/04/03 01:51:59;;;;;;;;;;;;;;;-2.86;100.00;102438.75;5053982;28;19912;-66
2023/04/03 01:54:24;;;;;;;;;;;;;;;-2.90;100.00;102431.00;5055092;28;19919;-65
2023/04/03 01:56:49;;;;;;;;;;;;;;;-2.89;100.00;102428.38;5053522;28;19913;-65
2023/04/03 01:59:16;;;;;;;;;;;;;;;-2.93;100.00;102436.28;5055435;28;19971;-66
2023/04/03 02:01:43;;;;;;;;;;;;;;;-2.93;100.00;102433.69;5056236;28;19916;-64
2023/04/03 02:04:08;;;;;;;;;;;;;;;-2.94;100.00;102439.78;5054433;28;19916;-66
2023/04/03 02:06:34;;;;;;;;;;;;;;;-2.96;100.00;102441.59;5054745;28;20012;-66
2023/04/03 02:09:00;;;;;;;;;;;;;;;-3.02;100.00;102432.16;5054689;28;19913;-66
2023/04/03 02:11:25;;;;;;;;;;;;;;;-3.05;100.00;102433.97;5054611;28;19920;-66
2023/04/03 02:13:50;;;;;;;;;;;;;;;-3.05;100.00;102432.22;5055035;28;20389;-66
2023/04/03 02:16:16;;;;;;;;;;;;;;;-3.08;100.00;102437.50;5053386;28;19924;-67
2023/04/03 02:18:41;;;;;;;;;;;;;;;-3.10;100.00;102434.09;5054688;28;20042;-66
2023/04/03 02:21:06;;;;;;;;;;;;;;;-3.08;100.00;102437.50;5054536;28;19913;-64
2023/04/03 02:23:32;;;;;;;;;;;;;;;-3.05;100.00;102452.22;5054507;28;19965;-64
2023/04/03 02:26:05;;;;;;;;;;;;;;;-3.14;100.00;102437.66;5054450;28;19966;-63
2023/04/03 02:28:31;;;;;;;;;;;;;;;-3.15;100.00;102433.34;5054372;28;19952;-64
2023/04/03 02:30:56;;;;;;;;;;;;;;;-3.20;100.00;102429.94;5054539;28;19967;-65
2023/04/03 02:33:21;;;;;;;;;;;;;;;-3.17;100.00;102429.91;5054261;28;19981;-64
2023/04/03 02:35:52;;;;;;;;;;;;;;;-3.14;100.00;102427.25;5054451;28;20313;-63
2023/04/03 02:38:18;;;;;;;;;;;;;;;-3.12;100.00;102428.06;5054642;28;20267;-63
2023/04/03 02:40:43;;;;;;;;;;;;;;;-3.16;100.00;102423.81;5054443;28;19916;-64
2023/04/03 02:43:08;;;;;;;;;;;;;;;-3.14;100.00;102429.84;5054361;28;19912;-65
2023/04/03 02:45:34;;;;;;;;;;;;;;;-3.14;100.00;102427.25;5054217;28;20005;-65
2023/04/03 02:47:59;;;;;;;;;;;;;;;-3.12;100.00;102428.06;5054341;28;19913;-66
2023/04/03 02:50:24;;;;;;;;;;;;;;;-3.13;100.00;102427.19;5054130;28;19975;-64
2023/04/03 02:52:50;;;;;;;;;;;;;;;-3.13;100.00;102422.00;5054034;28;20558;-66
2023/04/03 02:55:15;;;;;;;;;;;;;;;-3.16;100.00;102432.47;5053894;28;19913;-65
2023/04/03 02:57:41;;;;;;;;;;;;;;;-3.16;100.00;102429.03;5053998;28;19913;-66
2023/04/03 03:00:06;;;;;;;;;;;;;;;-3.14;100.00;102428.09;5053978;28;20379;-65
2023/04/03 03:02:32;;;;;;;;;;;;;;;-3.12;100.00;102420.25;5053724;28;20024;-66
2023/04/03 03:04:57;;;;;;;;;;;;;;;-3.15;100.00;102422.91;5053760;28;19917;-64
2023/04/03 03:07:22;;;;;;;;;;;;;;;-3.11;100.00;102429.78;5053589;28;20331;-64
2023/04/03 03:09:48;;;;;;;;;;;;;;;-3.12;100.00;102430.66;5053703;28;19974;-65
2023/04/03 03:12:13;;;;;;;;;;;;;;;-3.14;100.00;102429.84;5054388;28;19936;-68
2023/04/03 03:14:38;;;;;;;;;;;;;;;-3.10;100.00;102438.44;5053691;28;19913;-69
2023/04/03 03:17:04;;;;;;;;;;;;;;;-3.09;100.00;102417.56;5052670;28;19977;-64
2023/04/03 03:19:29;;;;;;;;;;;;;;;-3.03;100.00;102430.44;5053727;28;19966;-64
2023/04/03 03:21:54;;;;;;;;;;;;;;;-3.08;100.00;102416.66;5053491;28;19998;-66
2023/04/03 03:24:20;;;;;;;;;;;;;;;-3.07;100.00;102420.13;5053410;28;19920;-66
2023/04/03 03:26:45;;;;;;;;;;;;;;;-3.03;100.00;102416.56;5053600;28;19913;-66
2023/04/03 03:29:10;;;;;;;;;;;;;;;-3.04;100.00;102431.34;5054154;28;20241;-66
2023/04/03 03:31:36;;;;;;;;;;;;;;;-3.05;100.00;102428.78;5053534;28;19913;-66
2023/04/03 03:34:01;;;;;;;;;;;;;;;-3.03;100.00;102417.41;5053239;28;19913;-67
2023/04/03 03:36:26;;;;;;;;;;;;;;;-2.99;100.00;102437.28;5053185;28;20019;-66
2023/04/03 03:38:52;;;;;;;;;;;;;;;-3.03;100.00;102430.44;5053327;28;19912;-65
2023/04/03 03:41:17;;;;;;;;;;;;;;;-3.00;100.00;102419.94;5053465;28;19912;-64
2023/04/03 03:43:42;;;;;;;;;;;;;;;-2.99;100.00;102437.28;5054005;28;19923;-65
2023/04/03 03:46:08;;;;;;;;;;;;;;;-3.02;100.00;102439.97;5053903;28;20020;-65
2023/04/03 03:48:33;;;;;;;;;;;;;;;-3.09;100.00;102443.63;5052095;28;19917;-67
2023/04/03 03:50:58;;;;;;;;;;;;;;;-3.05;100.00;102434.84;5053452;28;19913;-67
2023/04/03 03:53:24;;;;;;;;;;;;;;;-3.08;100.00;102445.34;5053701;28;20296;-66
2023/04/03 03:55:49;;;;;;;;;;;;;;;-3.12;100.00;102443.69;5052952;28;20395;-65
2023/04/03 03:58:15;;;;;;;;;;;;;;;-3.09;100.00;102438.41;5053243;28;20269;-68
2023/04/03 04:00:40;;;;;;;;;;;;;;;-3.08;100.00;102440.13;5052618;28;19919;-68
2023/04/03 04:03:05;;;;;;;;;;;;;;;-3.06;100.00;102433.13;5052995;28;19916;-67
2023/04/03 04:05:30;;;;;;;;;;;;;;;-3.03;100.00;102435.66;5052992;28;19921;-66
2023/04/03 04:07:56;;;;;;;;;;;;;;;-3.01;100.00;102435.63;5053861;28;19983;-66
2023/04/03 04:10:21;;;;;;;;;;;;;;;-2.98;100.00;102438.16;5054065;28;19912;-69
2023/04/03 04:12:48;;;;;;;;;;;;;;;-3.00;100.00;102438.19;5052336;28;19920;-69
2023/04/03 04:15:14;;;;;;;;;;;;;;;-2.99;100.00;102439.91;5053373;28;19913;-71
2023/04/03 04:17:40;;;;;;;;;;;;;;;-3.01;100.00;102446.03;5053022;28;19923;-69
2023/04/03 04:20:05;;;;;;;;;;;;;;;-3.01;100.00;102443.44;5052560;28;19913;-68
2023/04/03 04:22:31;;;;;;;;;;;;;;;-3.02;100.00;102426.94;5052633;28;19917;-70
2023/04/03 04:24:56;;;;;;;;;;;;;;;-2.97;100.00;102432.03;5052126;28;20303;-69
2023/04/03 04:27:21;;;;;;;;;;;;;;;-2.99;100.00;102433.84;5052281;28;19917;-68
2023/04/03 04:29:47;;;;;;;;;;;;;;;-2.98;100.00;102420.75;5052503;28;19917;-67
2023/04/03 04:32:12;;;;;;;;;;;;;;;-2.98;100.00;102436.41;5052483;28;20229;-65
2023/04/03 04:34:37;;;;;;;;;;;;;;;-3.02;100.00;102433.91;5051276;28;20365;-66
2023/04/03 04:37:03;;;;;;;;;;;;;;;-3.00;100.00;102429.50;5051134;28;19959;-65
2023/04/03 04:39:28;;;;;;;;;;;;;;;-2.94;100.00;102437.19;5052250;28;19913;-66
2023/04/03 04:41:53;;;;;;;;;;;;;;;-2.91;100.00;102439.72;5052327;28;20010;-67
2023/04/03 04:44:19;;;;;;;;;;;;;;;-2.91;100.00;102427.53;5052461;28;19920;-65
2023/04/03 04:46:45;;;;;;;;;;;;;;;-2.93;100.00;102431.94;5052312;28;19920;-66
2023/04/03 04:49:10;;;;;;;;;;;;;;;-2.88;100.00;102422.28;5052444;28;19913;-63
2023/04/03 04:51:36;;;;;;;;;;;;;;;-2.80;100.00;102424.69;5051577;28;19924;-63
2023/04/03 04:54:01;;;;;;;;;;;;;;;-2.81;100.00;102423.84;5052292;28;19913;-63
2023/04/03 04:56:26;;;;;;;;;;;;;;;-2.76;100.00;102430.69;5052207;28;19913;-63
2023/04/03 04:58:51;;;;;;;;;;;;;;;-2.69;100.00;102421.81;5051963;28;19913;-66
2023/04/03 05:01:18;;;;;;;;;;;;;;;-2.61;100.00;102425.09;5051692;28;19917;-67
2023/04/03 05:03:44;;;;;;;;;;;;;;;-2.46;100.00;102416.91;5052268;28;19925;-66
2023/04/03 05:06:09;;;;;;;;;;;;;;;-2.36;100.00;102431.41;5052096;28;20003;-65
2023/04/03 05:08:35;;;;;;;;;;;;;;;-2.36;100.00;102420.13;5050905;28;19944;-65
2023/04/03 05:11:00;;;;;;;;;;;;;;;-2.46;100.00;102429.94;5052090;28;20371;-66
2023/04/03 05:13:49;;;;;;;;;;;;;;;-2.43;100.00;102419.44;5049442;28;20328;-68
2023/04/03 05:16:53;;;;;;;;;;;;;;;-2.48;100.00;102417.84;4994754;28;19917;-64
2023/04/03 05:19:47;;;;;;;;;;;;;;;-2.58;100.00;102431.13;5052070;28;19952;-67
2023/04/03 05:22:12;;;;;;;;;;;;;;;-2.53;100.00;102420.56;5052471;28;20372;-66
2023/04/03 05:24:38;;;;;;;;;;;;;;;-2.52;100.00;102419.66;5052549;28;19928;-66
2023/04/03 05:27:03;;;;;;;;;;;;;;;-2.35;100.00;102422.69;5053690;28;20445;-64
2023/04/03 05:29:29;;;;;;;;;;;;;;;-2.20;100.00;102427.53;5051783;28;19974;-66
2023/04/03 05:31:55;;;;;;;;;;;;;;;-2.16;100.00;102427.44;5050842;28;19964;-68
2023/04/03 05:34:20;;;;;;;;;;;;;;;-2.17;100.00;102428.34;5052133;28;20394;-66
2023/04/03 05:36:45;;;;;;;;;;;;;;;-2.13;100.00;102429.97;5051907;28;19912;-67
2023/04/03 05:39:11;;;;;;;;;;;;;;;-2.21;100.00;102431.03;5053225;28;20210;-66
2023/04/03 05:41:36;;;;;;;;;;;;;;;-2.20;100.00;102440.56;5055619;28;19912;-67
2023/04/03 05:44:02;;;;;;;;;;;;;;;-2.27;100.00;102439.03;5055209;28;19920;-66
2023/04/03 05:46:27;;;;;;;;;;;;;;;-2.33;100.00;102428.72;5055138;28;19920;-67
2023/04/03 05:48:52;;;;;;;;;;;;;;;-2.36;100.00;102428.81;5053975;28;19924;-66
2023/04/03 05:51:19;;;;;;;;;;;;;;;-2.32;100.00;102430.44;5054505;28;19912;-66
2023/04/03 05:53:46;;;;;;;;;;;;;;;-2.33;100.00;102436.53;5055167;28;19912;-67
2023/04/03 05:56:11;;;;;;;;;;;;;;;-2.29;100.00;102438.22;5055025;28;19919;-65
2023/04/03 05:59:02;;;;;;;;;;;;;;;-2.22;100.00;102433.69;5053671;28;19913;-67
2023/04/03 06:01:27;;;;;;;;;;;;;;;-2.21;100.00;102436.25;5054801;28;20390;-68
2023/04/03 06:03:53;;;;;;;;;;;;;;;-2.06;100.00;102426.28;5055043;28;20027;-66
2023/04/03 06:06:19;;;;;;;;;;;;;;;-1.88;100.00;102431.03;5060180;28;19924;-70
2023/04/03 06:08:46;;;;;;;;;;;;;;;-1.96;100.00;102438.22;5062700;28;19913;-69
2023/04/03 06:11:11;;;;;;;;;;;;;;;-2.12;100.00;102434.28;5065482;28;19967;-71
2023/04/03 06:13:37;;;;;;;;;;;;;;;-2.17;100.00;102457.03;5051123;28;20381;-70
2023/04/03 06:16:03;;;;;;;;;;;;;;;-2.23;100.00;102438.03;5051530;28;19912;-69
2023/04/03 06:18:30;;;;;;;;;;;;;;;-2.22;100.00;102439.75;5065940;28;19970;-65
2023/04/03 06:20:55;;;;;;;;;;;;;;;-2.23;100.00;102445.88;5065784;28;19912;-66
2023/04/03 06:23:20;;;;;;;;;;;;;;;-2.10;100.00;102428.13;5065684;28;19913;-65
2023/04/03 06:25:45;;;;;;;;;;;;;;;-2.02;100.00;102433.16;5054694;28;20391;-66
2023/04/03 06:28:11;;;;;;;;;;;;;;;-2.04;100.00;102440.16;5037014;28;19913;-65
2023/04/03 06:30:36;;;;;;;;;;;;;;;-2.11;100.00;102423.81;5054578;28;19931;-66
2023/04/03 06:33:02;;;;;;;;;;;;;;;-2.08;100.00;102430.69;5053357;28;20363;-66
2023/04/03 06:35:28;;;;;;;;;;;;;;;-1.99;100.00;102428.72;5054219;28;19960;-66
2023/04/03 06:37:53;;;;;;;;;;;;;;;-1.89;100.00;102426.69;5054096;28;19923;-66
2023/04/03 06:40:21;;;;;;;;;;;;;;;-1.88;100.00;102423.19;5060889;28;20377;-65
2023/04/03 06:42:46;;;;;;;;;;;;;;;-1.79;100.00;102438.59;5075631;28;19923;-67
2023/04/03 06:45:12;;;;;;;;;;;;;;;-2.04;100.00;102437.53;5069728;28;20229;-65
2023/04/03 06:47:37;;;;;;;;;;;;;;;-2.11;100.00;102420.34;5075100;28;19923;-65
2023/04/03 06:50:03;;;;;;;;;;;;;;;-2.02;100.00;102441.84;5067772;28;19917;-64
2023/04/03 06:52:28;;;;;;;;;;;;;;;-1.88;100.00;102439.72;5053950;28;19924;-65
2023/04/03 06:54:57;;;;;;;;;;;;;;;-1.65;100.00;102431.25;5054275;28;20398;-67
2023/04/03 06:57:22;;;;;;;;;;;;;;;-1.45;98.55;102440.22;5052771;28;19913;-67
2023/04/03 06:59:47;;;;;;;;;;;;;;;-1.31;97.85;102440.69;5054209;28;19919;-64
2023/04/03 07:02:13;;;;;;;;;;;;;;;-1.22;98.93;102450.03;5053647;28;19921;-67
2023/04/03 07:04:38;;;;;;;;;;;;;;;-1.13;99.12;102440.16;5053777;28;19924;-66
2023/04/03 07:07:03;;;;;;;;;;;;;;;-1.13;97.63;102437.56;5053798;28;19912;-64
2023/04/03 07:09:29;;;;;;;;;;;;;;;-0.89;96.40;102442.91;5054227;28;20367;-66
2023/04/03 07:11:54;;;;;;;;;;;;;;;-0.79;94.72;102450.44;5055161;28;19951;-70
2023/04/03 07:14:21;;;;;;;;;;;;;;;-0.78;95.67;102454.75;5056550;28;19935;-71
2023/04/03 07:16:46;;;;;;;;;;;;;;;-0.70;95.45;102444.03;5054163;28;19913;-70
2023/04/03 07:19:15;;;;;;;;;;;;;;;-0.61;94.36;102459.44;5052566;28;19962;-72
2023/04/03 07:21:41;;;;;;;;;;;;;;;-0.63;96.41;102450.78;5053845;28;19913;-69
2023/04/03 07:24:07;;;;;;;;;;;;;;;-0.75;96.23;102452.03;5053787;28;20391;-68
2023/04/03 07:26:32;;;;;;;;;;;;;;;-0.93;98.74;102458.69;5052276;28;20003;-67
2023/04/03 07:28:57;;;;;;;;;;;;;;;-0.94;99.94;102449.13;5054366;28;19913;-70
2023/04/03 07:31:23;;;;;;;;;;;;;;;-0.70;98.63;102454.50;5052579;28;19917;-68
2023/04/03 07:33:48;;;;;;;;;;;;;;;-0.75;98.72;102446.81;5054420;28;20023;-66
2023/04/03 07:36:18;;;;;;;;;;;;;;;-0.62;97.41;102455.97;5054066;28;19913;-65
2023/04/03 07:38:43;;;;;;;;;;;;;;;-0.67;97.84;102476.19;5053302;28;19998;-67
2023/04/03 07:41:12;;;;;;;;;;;;;;;-0.70;97.36;102459.72;5053668;28;19913;-69
2023/04/03 07:43:37;;;;;;;;;;;;;;;-0.58;97.17;102453.22;5052126;28;19935;-66
2023/04/03 07:46:07;;;;;;;;;;;;;;;-0.43;95.27;102458.84;5053319;28;20382;-70
2023/04/03 07:48:36;;;;;;;;;;;;;;;-0.50;98.10;102452.09;5053166;28;20415;-67
2023/04/03 07:51:02;;;;;;;;;;;;;;;-0.44;97.78;102467.59;5053669;28;19917;-68
2023/04/03 07:53:27;;;;;;;;;;;;;;;-0.45;98.96;102455.41;5053429;28;20399;-68
2023/04/03 07:55:55;;;;;;;;;;;;;;;-0.32;97.40;102461.09;5053715;28;19964;-67
2023/04/03 07:58:21;;;;;;;;;;;;;;;-0.10;98.08;102450.75;5052050;28;20350;-70
2023/04/03 08:00:46;;;;;;;;;;;;;;;0.15;97.10;102456.84;5052958;28;20011;-69
2023/04/03 08:03:12;;;;;;;;;;;;;;;0.13;95.97;102453.44;5052760;28;19916;-67
2023/04/03 08:05:39;;;;;;;;;;;;;;;-0.02;96.02;102448.72;5052972;28;19913;-67
2023/04/03 08:08:05;;;;;;;;;;;;;;;0.11;95.57;102459.63;5053053;28;19970;-69
2023/04/03 08:10:31;;;;;;;;;;;;;;;0.03;93.38;102462.53;5053368;28;20015;-69
2023/04/03 08:12:56;;;;;;;;;;;;;;;-0.19;93.26;102466.78;5053274;28;19913;-69
2023/04/03 08:15:22;;;;;;;;;;;;;;;-0.29;93.85;102465.38;5052990;28;19912;-68
2023/04/03 08:17:47;;;;;;;;;;;;;;;-0.23;93.54;102467.81;5053176;28;20364;-68
2023/04/03 08:20:13;;;;;;;;;;;;;;;-0.25;93.46;102467.00;5053385;28;19921;-70
2023/04/03 08:22:38;;;;;;;;;;;;;;;-0.27;94.04;102471.44;5053137;28;19913;-70
2023/04/03 08:25:04;;;;;;;;;;;;;;;-0.41;93.86;102464.88;5052842;28;19917;-69
2023/04/03 08:27:29;;;;;;;;;;;;;;;-0.56;94.31;102462.78;5051744;28;19920;-68
2023/04/03 08:29:55;;;;;;;;;;;;;;;-0.75;94.88;102459.88;5055210;28;19916;-68
2023/04/03 08:32:20;;;;;;;;;;;;;;;-0.73;95.93;102480.75;5052867;28;20265;-70
2023/04/03 08:34:46;;;;;;;;;;;;;;;-0.56;95.21;102482.84;5052676;28;20011;-69
2023/04/03 08:37:11;;;;;;;;;;;;;;;-0.32;94.58;102480.28;5052331;28;19912;-70
2023/04/03 08:39:37;;;;;;;;;;;;;;;-0.26;93.79;102470.53;5052894;28;19920;-66
2023/04/03 08:42:14;;;;;;;;;;;;;;;-0.12;93.08;102478.75;5052378;28;19974;-68
2023/04/03 08:44:45;;;;;;;;;;;;;;;-0.05;92.73;102477.63;5051307;28;19913;-68
2023/04/03 08:47:20;;;;;;;;;;;;;;;-0.11;91.41;102490.94;5052414;28;19917;-69
2023/04/03 08:49:51;;;;;;;;;;;;;;;-0.33;93.25;102481.19;5052322;28;20003;-69
2023/04/03 08:52:23;;;;;;;;;;;;;;;-0.28;91.78;102493.28;5052272;28;19944;-69
2023/04/03 08:55:05;;;;;;;;;;;;;;;-0.22;92.77;102478.22;5051400;28;19913;-71
2023/04/03 08:57:36;;;;;;;;;;;;;;;-0.04;92.69;102488.06;5052255;28;20225;-66
2023/04/03 09:00:13;;;;;;;;;;;;;;;0.10;95.58;102468.41;5053589;28;19913;-68
2023/04/03 09:02:46;;;;;;;;;;;;;;;0.32;94.31;102485.09;5054508;28;19976;-67
2023/04/03 09:05:18;;;;;;;;;;;;;;;0.22;94.53;102479.28;5055160;28;19924;-68
2023/04/03 09:07:46;;;;;;;;;;;;;;;0.22;94.69;102487.16;5054847;28;19956;-70
2023/04/03 09:10:12;;;;;;;;;;;;;;;-0.01;96.87;102492.31;5052858;28;19913;-67
2023/04/03 09:12:41;;;;;;;;;;;;;;;0.19;97.96;102487.25;5052338;28;19913;-69
2023/04/03 09:15:18;;;;;;;;;;;;;;;0.41;97.42;102486.50;5055399;28;19913;-68
2023/04/03 09:17:44;;;;;;;;;;;;;;;0.61;96.61;102481.41;5055911;28;19917;-69
2023/04/03 09:20:09;;;;;;;;;;;;;;;0.76;94.97;102475.56;5055620;28;20367;-71
2023/04/03 09:22:39;;;;;;;;;;;;;;;0.61;94.13;102478.78;5055975;28;19913;-68
2023/04/03 09:25:15;;;;;;;;;;;;;;;0.74;94.66;102484.41;5056303;28;20360;-68
2023/04/03 09:27:41;;;;;;;;;;;;;;;0.50;95.04;102483.53;5055836;28;20283;-67
2023/04/03 09:30:12;;;;;;;;;;;;;;;0.39;95.95;102485.72;5054954;28;19913;-69
2023/04/03 09:32:38;;;;;;;;;;;;;;;0.37;96.47;102506.75;5055736;28;19913;-68
2023/04/03 09:35:14;;;;;;;;;;;;;;;0.52;97.30;102493.06;5055762;28;20034;-71
2023/04/03 09:37:42;;;;;;;;;;;;;;;0.60;94.63;102490.19;5055775;28;20454;-69
2023/04/03 09:40:40;;;;;;;;;;;;;;;0.39;96.14;102486.56;5055915;28;19959;-67
2023/04/03 09:43:17;;;;;;;;;;;;;;;0.33;96.65;102488.56;5035155;28;19956;-68
2023/04/03 09:45:44;;;;;;;;;;;;;;;0.35;96.68;102489.34;5056206;28;19913;-66
2023/04/03 09:48:12;;;;;;;;;;;;;;;0.20;95.86;102482.88;5055719;28;19913;-68
2023/04/03 09:50:38;;;;;;;;;;;;;;;0.13;95.98;102474.38;5055529;28;19913;-69
2023/04/03 09:53:06;;;;;;;;;;;;;;;0.39;96.74;102477.84;5055537;28;19939;-67
2023/04/03 09:55:32;;;;;;;;;;;;;;;0.75;96.95;102478.25;5055496;28;19917;-69
2023/04/03 09:58:01;;;;;;;;;;;;;;;0.82;93.44;102487.59;5055315;28;20357;-69
2023/04/03 10:00:30;;;;;;;;;;;;;;;0.83;94.17;102487.53;5053974;28;19912;-67
2023/04/03 10:02:56;;;;;;;;;;;;;;;1.02;94.44;102484.22;5053635;28;19970;-69
2023/04/03 10:05:31;;;;;;;;;;;;;;;1.05;95.54;102484.94;5055248;28;19962;-66
2023/04/03 10:08:17;;;;;;;;;;;;;;;1.09;92.03;102493.56;5055375;28;19935;-71
2023/04/03 10:10:44;;;;;;;;;;;;;;;0.87;91.96;102488.31;5047708;28;19913;-69
2023/04/03 10:13:14;;;;;;;;;;;;;;;0.77;92.16;102485.16;5055766;28;20260;-69
2023/04/03 10:15:41;;;;;;;;;;;;;;;0.88;92.57;102485.63;5055752;28;20367;-69
2023/04/03 10:18:18;;;;;;;;;;;;;;;0.96;91.54;102500.19;5059285;28;20264;-68
2023/04/03 10:20:46;;;;;;;;;;;;;;;0.98;91.23;102501.00;5059154;28;20276;-68
2023/04/03 10:23:12;;;;;;;;;;;;;;;0.98;90.30;102506.25;5058585;28;19959;-68
2023/04/03 10:25:47;;;;;;;;;;;;;;;0.78;91.15;102486.84;5058382;28;19912;-68
2023/04/03 10:28:21;;;;;;;;;;;;;;;1.07;92.47;102492.75;5057507;28;19958;-68
2023/04/03 10:30:50;;;;;;;;;;;;;;;1.31;90.27;102499.69;5059592;28;19916;-69
2023/04/03 10:33:22;;;;;;;;;;;;;;;1.16;90.75;102501.16;5055022;28;19948;-69
2023/04/03 10:35:48;;;;;;;;;;;;;;;1.35;90.53;102489.91;5055797;28;19913;-67
2023/04/03 10:38:34;;;;;;;;;;;;;;;1.22;91.33;102492.19;5054337;28;20514;-69
2023/04/03 10:41:16;;;;;;;;;;;;;;;1.21;89.49;102487.84;5055865;28;19912;-65
2023/04/03 10:43:49;;;;;;;;;;;;;;;1.17;90.04;102492.38;5054844;28;19913;-66
2023/04/03 10:46:28;;;;;;;;;;;;;;;1.32;90.70;102487.41;5054379;28;19912;-67
2023/04/03 10:49:02;;;;;;;;;;;;;;;1.18;89.32;102488.81;5054259;28;19917;-65
2023/04/03 10:51:33;;;;;;;;;;;;;;;1.10;90.81;102497.88;5053438;28;19913;-67
2023/04/03 10:54:17;;;;;;;;;;;;;;;1.14;91.42;102486.34;5054111;28;19963;-68
2023/04/03 10:56:45;;;;;;;;;;;;;;;1.32;91.19;102479.53;5054295;28;19952;-65
2023/04/03 10:59:29;;;;;;;;;;;;;;;1.40;89.83;102482.69;5054399;28;19919;-66
2023/04/03 11:01:56;;;;;;;;;;;;;;;1.16;90.72;102490.66;5054016;28;19924;-67
2023/04/03 11:04:23;;;;;;;;;;;;;;;0.95;90.99;102482.75;5054646;28;19916;-68
2023/04/03 11:06:57;;;;;;;;;;;;;;;1.04;92.63;102479.75;5056329;28;19987;-67
2023/04/03 11:09:26;;;;;;;;;;;;;;;1.09;92.57;102480.44;5056714;28;20440;-67
2023/04/03 11:11:53;;;;;;;;;;;;;;;1.47;92.30;102474.53;5056745;28;20320;-68
2023/04/03 11:14:25;;;;;;;;;;;;;;;1.82;91.70;102491.47;5053821;28;20020;-68
2023/04/03 11:16:57;;;;;;;;;;;;;;;1.67;91.25;102491.22;5054471;28;19966;-68
2023/04/03 11:19:43;;;;;;;;;;;;;;;1.49;92.65;102493.72;5057846;28;19913;-68
2023/04/03 11:22:47;;;;;;;;;;;;;;;1.15;92.44;102494.16;5057662;28;19928;-69
2023/04/03 11:25:12;;;;;;;;;;;;;;;1.06;91.42;102488.44;5054377;28;20387;-68
2023/04/03 11:27:47;;;;;;;;;;;;;;;0.96;93.23;102494.97;5053796;28;19979;-68
2023/04/03 11:30:24;;;;;;;;;;;;;;;0.88;91.18;102496.09;5053485;28;19920;-71
2023/04/03 11:33:08;;;;;;;;;;;;;;;0.86;91.88;102482.16;5053801;28;19913;-67
2023/04/03 11:35:34;;;;;;;;;;;;;;;0.91;92.34;102495.13;5053270;28;19966;-67
2023/04/03 11:38:02;;;;;;;;;;;;;;;0.74;91.79;102490.50;5052758;28;20003;-66
2023/04/03 11:40:29;;;;;;;;;;;;;;;0.58;93.14;102489.38;5051899;28;19920;-68
2023/04/03 11:43:04;;;;;;;;;;;;;;;0.50;93.68;102496.66;5053077;28;20391;-66
2023/04/03 11:45:58;;;;;;;;;;;;;;;0.47;95.69;102499.38;5053486;28;19912;-67
2023/04/03 11:48:27;;;;;;;;;;;;;;;0.40;92.78;102497.91;5051489;28;20043;-70
2023/04/03 11:50:52;;;;;;;;;;;;;;;0.35;94.01;102497.22;5054371;28;19966;-66
2023/04/03 11:53:32;;;;;;;;;;;;;;;0.36;94.81;102491.06;5053373;28;20319;-71
2023/04/03 11:56:04;;;;;;;;;;;;;;;0.47;92.82;102496.78;5052832;28;20387;-72
2023/04/03 11:58:34;;;;;;;;;;;;;;;0.48;93.07;102503.72;5052869;28;20378;-68
2023/04/03 12:01:03;;;;;;;;;;;;;;;0.52;94.31;102485.19;5052509;28;19917;-67
2023/04/03 12:03:30;;;;;;;;;;;;;;;0.46;93.81;102497.69;5052932;28;19916;-68
2023/04/03 12:06:02;;;;;;;;;;;;;;;0.36;94.61;102489.31;5051476;28;19913;-66
2023/04/03 12:08:29;;;;;;;;;;;;;;;0.33;94.86;102497.28;5052717;28;19920;-68
2023/04/03 12:11:13;;;;;;;;;;;;;;;0.26;95.33;102486.13;5052511;28;20280;-70
2023/04/03 12:13:56;;;;;;;;;;;;;;;0.25;95.97;102483.56;5052528;28;20372;-69
2023/04/03 12:16:25;;;;;;;;;;;;;;;0.30;94.94;102485.13;5052823;28;19920;-67
2023/04/03 12:18:53;;;;;;;;;;;;;;;0.26;94.93;102486.13;5052793;28;20019;-67
2023/04/03 12:21:21;;;;;;;;;;;;;;;0.20;95.18;102485.50;5052501;28;19912;-69
2023/04/03 12:24:05;;;;;;;;;;;;;;;0.20;95.26;102490.75;5052645;28;19917;-67
2023/04/03 12:26:35;;;;;;;;;;;;;;;0.16;96.26;102478.66;5052287;28;20349;-68
2023/04/03 12:29:10;;;;;;;;;;;;;;;0.12;95.75;102498.88;5052636;28;19919;-67
2023/04/03 12:32:01;;;;;;;;;;;;;;;0.10;94.58;102484.13;5051045;28;19913;-68
2023/04/03 12:34:27;;;;;;;;;;;;;;;0.12;94.73;102480.53;5036685;28;19912;-69
2023/04/03 12:37:07;;;;;;;;;;;;;;;0.22;93.95;102478.44;5052231;28;20280;-69
2023/04/03 12:39:50;;;;;;;;;;;;;;;0.20;93.52;102478.50;5052569;28;20008;-68